(°C)
15°
14°
14°
13°
12°
12°
11°
(°C)
11°
11°
11°
10°
10°
SSO
SSO
S
S
S
S
SSE
(km/h)
15-24
14-23
13-21
11-20
10-19
10-17
10-16
(mm)
0
0
0
0
0
0
0
(%)
17
10
11
25
19
12
19

Elevación del sol

/ 12.8°
sun-icon
UV 2
07:24
19:26
Gibosa menguante (242°)
21:34
13:12

METAR a 51.15°N 51.54°E (UARR)

Hora Condiciones Temperatura/
Punto de condensación
Viento Visibilidad Tiempo Nubes Presión Cambiar Bruto
MVFR 15°C / 11°C 200º 8kt >10km - Broken Clouds 1700ft 1007 No Significant change UARR 261230Z 20004MPS 9999 BKN017CB 15/11 Q1007 R22/CLRD70 NOSIG RMK QFE752/1003
MVFR 15°C / 11°C 200º 8kt >10km - Broken Clouds 1400ft 1007 No Significant change UARR 261217Z 20004MPS 9999 BKN014CB 15/11 Q1007 R22/CLRD70 NOSIG RMK QFE752/1003
MVFR 15°C / 11°C 190º 8kt >10km - Broken Clouds 2900ft 1007 No Significant change UARR 261200Z 19004MPS 9999 BKN029CB 15/11 Q1007 R22/CLRD70 NOSIG RMK QFE752/1003
VFR 15°C / 12°C 200º 8kt >10km - Broken Clouds 5000ft 1008 No Significant change UARR 261130Z 20004MPS 9999 BKN050CB 15/12 Q1008 R22/CLRD70 NOSIG RMK QFE752/1003
VFR 14°C / 11°C 220º 12kt >10km - Broken Clouds 4000ft 1008 No Significant change UARR 261100Z 22006MPS 9999 BKN040CB 14/11 Q1008 R22/CLRD70 NOSIG RMK QFE752/1003
VFR 15°C / 10°C 210º 10kt >10km - Broken Clouds 3900ft 1008 No Significant change UARR 261030Z 21005MPS 9999 BKN039CB 15/10 Q1008 R22/CLRD70 NOSIG RMK QFE752/1003
VFR 14°C / 10°C 210º 14kt >10km - Broken Clouds 4300ft 1008 No Significant change UARR 261000Z 21007MPS 9999 BKN043CB 14/10 Q1008 R22/CLRD70 NOSIG RMK QFE752/1003
VFR 15°C / 10°C 200º 14kt >10km - Broken Clouds 4100ft 1008 No Significant change UARR 260930Z 20007MPS 9999 BKN041CB 15/10 Q1008 R22/CLRD70 NOSIG RMK QFE752/1003
VFR 16°C / 10°C 180º 10kt >10km - Broken Clouds 4500ft 1008 No Significant change UARR 260900Z 18005MPS 9999 BKN045 16/10 Q1008 R22/CLRD70 NOSIG RMK QFE752/1003
VFR 16°C / 10°C 200º 10kt >10km - Scattered Clouds 2100ft 1008 No Significant change UARR 260830Z 20005MPS 9999 SCT021 16/10 Q1008 R22/CLRD70 NOSIG RMK QFE753/1004
VFR 15°C / 9°C 190º variable 150º to 220º 10kt >10km - Clouds and Visibility OK 1009 No Significant change UARR 260800Z 19005MPS 150V220 CAVOK 15/09 Q1009 R22/CLRD70 NOSIG RMK QFE753/1004
VFR 15°C / 8°C 190º 12kt >10km - Clouds and Visibility OK 1009 No Significant change UARR 260730Z 19006MPS CAVOK 15/08 Q1009 R22/CLRD70 NOSIG RMK QFE753/1004
VFR 14°C / 8°C 180º variable 150º to 220º 8kt >10km - Clouds and Visibility OK 1009 No Significant change UARR 260700Z 18004MPS 150V220 CAVOK 14/08 Q1009 R22/CLRD70 NOSIG RMK QFE753/1005
VFR 14°C / 9°C 200º 8kt >10km - Clouds and Visibility OK 1010 No Significant change UARR 260630Z 20004MPS CAVOK 14/09 Q1010 R22/CLRD70 NOSIG RMK QFE754/1005
VFR 14°C / 8°C 210º variable 180º to 240º 6kt >10km - Clouds and Visibility OK 1010 No Significant change UARR 260600Z 21003MPS 180V240 CAVOK 14/08 Q1010 R22/CLRD70 NOSIG RMK QFE754/1005
VFR 12°C / 9°C variable 2kt >10km - Clouds and Visibility OK 1010 No Significant change UARR 260530Z VRB01MPS CAVOK 12/09 Q1010 R22/CLRD70 NOSIG RMK QFE754/1005
VFR 10°C / 8°C variable 0kt >10km - Clouds and Visibility OK 1010 No Significant change UARR 260500Z 00000MPS CAVOK 10/08 Q1010 R22/CLRD70 NOSIG RMK QFE754/1006
VFR 8°C / 7°C 200º 4kt 9000m - Clear 1010 No Significant change UARR 260430Z 20002MPS 9000 NSC 08/07 Q1010 R04/CLRD70 NOSIG RMK QFE754/1006
MVFR 6°C / 6°C 170º 4kt 7000m - Clear 1010 No Significant change UARR 260400Z 17002MPS 7000 NSC 06/06 Q1010 R04/CLRD70 NOSIG RMK QFE754/1006
MVFR 5°C / 5°C 180º 6kt 5000m Mist Vertical Visibility of 0ft. 1010 No Significant change UARR 260330Z 18003MPS 5000 BR NSC 05/05 Q1010 R22/CLRD70 NOSIG RMK QFE754/1006
MVFR 3°C / 3°C 160º 6kt 5000m Mist Vertical Visibility of 0ft. 1010 No Significant change UARR 260300Z 16003MPS 5000 BR NSC 03/03 Q1010 R22/CLRD70 NOSIG RMK QFE754/1006
IFR 3°C / 2°C variable 2kt 4700m Mist Vertical Visibility of 0ft. 1011 No Significant change UARR 260244Z VRB01MPS 4700 BR NSC 03/02 Q1011 R22/CLRD70 NOSIG RMK QFE754/1006
MVFR 4°C / 3°C variable 2kt 7000m - Clear 1011 No Significant change UARR 260230Z VRB01MPS 7000 NSC 04/03 Q1011 R22/CLRD70 NOSIG RMK QFE754/1006
MVFR 3°C / 3°C 240º 4kt 5000m Mist Vertical Visibility of 0ft. 1011 No Significant change UARR 260200Z 24002MPS 5000 BR NSC 03/03 Q1011 R22/CLRD70 NOSIG RMK QFE754/1006

MVFR

15°C / 11°C

[Más]
Viento 200º 8kt
Visibilidad >10km
Tiempo -
Nubes Broken Clouds 1700ft
Presión 1007
Cambiar No Significant change
Bruto UARR 261230Z 20004MPS 9999 BKN017CB 15/11 Q1007 R22/CLRD70 NOSIG RMK QFE752/1003

MVFR

15°C / 11°C

[Más]
Viento 200º 8kt
Visibilidad >10km
Tiempo -
Nubes Broken Clouds 1400ft
Presión 1007
Cambiar No Significant change
Bruto UARR 261217Z 20004MPS 9999 BKN014CB 15/11 Q1007 R22/CLRD70 NOSIG RMK QFE752/1003

MVFR

15°C / 11°C

[Más]
Viento 190º 8kt
Visibilidad >10km
Tiempo -
Nubes Broken Clouds 2900ft
Presión 1007
Cambiar No Significant change
Bruto UARR 261200Z 19004MPS 9999 BKN029CB 15/11 Q1007 R22/CLRD70 NOSIG RMK QFE752/1003

VFR

15°C / 12°C

[Más]
Viento 200º 8kt
Visibilidad >10km
Tiempo -
Nubes Broken Clouds 5000ft
Presión 1008
Cambiar No Significant change
Bruto UARR 261130Z 20004MPS 9999 BKN050CB 15/12 Q1008 R22/CLRD70 NOSIG RMK QFE752/1003

VFR

14°C / 11°C

[Más]
Viento 220º 12kt
Visibilidad >10km
Tiempo -
Nubes Broken Clouds 4000ft
Presión 1008
Cambiar No Significant change
Bruto UARR 261100Z 22006MPS 9999 BKN040CB 14/11 Q1008 R22/CLRD70 NOSIG RMK QFE752/1003

VFR

15°C / 10°C

[Más]
Viento 210º 10kt
Visibilidad >10km
Tiempo -
Nubes Broken Clouds 3900ft
Presión 1008
Cambiar No Significant change
Bruto UARR 261030Z 21005MPS 9999 BKN039CB 15/10 Q1008 R22/CLRD70 NOSIG RMK QFE752/1003

VFR

14°C / 10°C

[Más]
Viento 210º 14kt
Visibilidad >10km
Tiempo -
Nubes Broken Clouds 4300ft
Presión 1008
Cambiar No Significant change
Bruto UARR 261000Z 21007MPS 9999 BKN043CB 14/10 Q1008 R22/CLRD70 NOSIG RMK QFE752/1003

VFR

15°C / 10°C

[Más]
Viento 200º 14kt
Visibilidad >10km
Tiempo -
Nubes Broken Clouds 4100ft
Presión 1008
Cambiar No Significant change
Bruto UARR 260930Z 20007MPS 9999 BKN041CB 15/10 Q1008 R22/CLRD70 NOSIG RMK QFE752/1003

VFR

16°C / 10°C

[Más]
Viento 180º 10kt
Visibilidad >10km
Tiempo -
Nubes Broken Clouds 4500ft
Presión 1008
Cambiar No Significant change
Bruto UARR 260900Z 18005MPS 9999 BKN045 16/10 Q1008 R22/CLRD70 NOSIG RMK QFE752/1003

VFR

16°C / 10°C

[Más]
Viento 200º 10kt
Visibilidad >10km
Tiempo -
Nubes Scattered Clouds 2100ft
Presión 1008
Cambiar No Significant change
Bruto UARR 260830Z 20005MPS 9999 SCT021 16/10 Q1008 R22/CLRD70 NOSIG RMK QFE753/1004

VFR

15°C / 9°C

[Más]
Viento 190º variable 150º to 220º 10kt
Visibilidad >10km
Tiempo -
Nubes Clouds and Visibility OK
Presión 1009
Cambiar No Significant change
Bruto UARR 260800Z 19005MPS 150V220 CAVOK 15/09 Q1009 R22/CLRD70 NOSIG RMK QFE753/1004

VFR

15°C / 8°C

[Más]
Viento 190º 12kt
Visibilidad >10km
Tiempo -
Nubes Clouds and Visibility OK
Presión 1009
Cambiar No Significant change
Bruto UARR 260730Z 19006MPS CAVOK 15/08 Q1009 R22/CLRD70 NOSIG RMK QFE753/1004

VFR

14°C / 8°C

[Más]
Viento 180º variable 150º to 220º 8kt
Visibilidad >10km
Tiempo -
Nubes Clouds and Visibility OK
Presión 1009
Cambiar No Significant change
Bruto UARR 260700Z 18004MPS 150V220 CAVOK 14/08 Q1009 R22/CLRD70 NOSIG RMK QFE753/1005

VFR

14°C / 9°C

[Más]
Viento 200º 8kt
Visibilidad >10km
Tiempo -
Nubes Clouds and Visibility OK
Presión 1010
Cambiar No Significant change
Bruto UARR 260630Z 20004MPS CAVOK 14/09 Q1010 R22/CLRD70 NOSIG RMK QFE754/1005

VFR

14°C / 8°C

[Más]
Viento 210º variable 180º to 240º 6kt
Visibilidad >10km
Tiempo -
Nubes Clouds and Visibility OK
Presión 1010
Cambiar No Significant change
Bruto UARR 260600Z 21003MPS 180V240 CAVOK 14/08 Q1010 R22/CLRD70 NOSIG RMK QFE754/1005

VFR

12°C / 9°C

[Más]
Viento variable 2kt
Visibilidad >10km
Tiempo -
Nubes Clouds and Visibility OK
Presión 1010
Cambiar No Significant change
Bruto UARR 260530Z VRB01MPS CAVOK 12/09 Q1010 R22/CLRD70 NOSIG RMK QFE754/1005

VFR

10°C / 8°C

[Más]
Viento variable 0kt
Visibilidad >10km
Tiempo -
Nubes Clouds and Visibility OK
Presión 1010
Cambiar No Significant change
Bruto UARR 260500Z 00000MPS CAVOK 10/08 Q1010 R22/CLRD70 NOSIG RMK QFE754/1006

VFR

8°C / 7°C

[Más]
Viento 200º 4kt
Visibilidad 9000m
Tiempo -
Nubes Clear
Presión 1010
Cambiar No Significant change
Bruto UARR 260430Z 20002MPS 9000 NSC 08/07 Q1010 R04/CLRD70 NOSIG RMK QFE754/1006

MVFR

6°C / 6°C

[Más]
Viento 170º 4kt
Visibilidad 7000m
Tiempo -
Nubes Clear
Presión 1010
Cambiar No Significant change
Bruto UARR 260400Z 17002MPS 7000 NSC 06/06 Q1010 R04/CLRD70 NOSIG RMK QFE754/1006

MVFR

5°C / 5°C

[Más]
Viento 180º 6kt
Visibilidad 5000m
Tiempo Mist
Nubes Vertical Visibility of 0ft.
Presión 1010
Cambiar No Significant change
Bruto UARR 260330Z 18003MPS 5000 BR NSC 05/05 Q1010 R22/CLRD70 NOSIG RMK QFE754/1006

MVFR

3°C / 3°C

[Más]
Viento 160º 6kt
Visibilidad 5000m
Tiempo Mist
Nubes Vertical Visibility of 0ft.
Presión 1010
Cambiar No Significant change
Bruto UARR 260300Z 16003MPS 5000 BR NSC 03/03 Q1010 R22/CLRD70 NOSIG RMK QFE754/1006

IFR

3°C / 2°C

[Más]
Viento variable 2kt
Visibilidad 4700m
Tiempo Mist
Nubes Vertical Visibility of 0ft.
Presión 1011
Cambiar No Significant change
Bruto UARR 260244Z VRB01MPS 4700 BR NSC 03/02 Q1011 R22/CLRD70 NOSIG RMK QFE754/1006

MVFR

4°C / 3°C

[Más]
Viento variable 2kt
Visibilidad 7000m
Tiempo -
Nubes Clear
Presión 1011
Cambiar No Significant change
Bruto UARR 260230Z VRB01MPS 7000 NSC 04/03 Q1011 R22/CLRD70 NOSIG RMK QFE754/1006

MVFR

3°C / 3°C

[Más]
Viento 240º 4kt
Visibilidad 5000m
Tiempo Mist
Nubes Vertical Visibility of 0ft.
Presión 1011
Cambiar No Significant change
Bruto UARR 260200Z 24002MPS 5000 BR NSC 03/03 Q1011 R22/CLRD70 NOSIG RMK QFE754/1006

TAF a 51.15°N 51.54°E (UARR)

From till


From till Wind 160º 10kt. Visibility 10km or more. Broken Clouds 1100ft. Broken Clouds 2000ft.
Temporarly from till Wind 200º 10kt. Gust 19kt.
Becoming from till Wind 160º 10kt. Visibility 3100m. Light Showers Rain Mist . Broken Clouds 1100ft. Broken Clouds 2000ft.
Temporarly from till Visibility 997.791m. Broken Clouds 400ft. Broken Clouds 2000ft.

Bruto: TAF UARR 261101Z 2612/2621 16005MPS 9999 BKN011 BKN020CB TEMPO 2612/2615 20005G10MPS BECMG 2615/2617 3100 -SHRA BR TEMPO 2618/2621 1000 BKN004 BKN020CB

Imágenes actuales de satélite y lluvia para 51.15°N 51.54°E

El marcador de lugar se coloca en 51.15°N 51.54°E. [Más]

La imagen de satélite en tiempo real se aprovecha de la combinación de bandas de la luz visible y de la luz infrarrojo. Como se puede detectar cambios de temperaturas atreves de la banda infrarrojo, la imagen no está escura de noche. No obstante, la niebla y las nubes bajas son apenas visibles en las imágenes infrarrojo como las diferencias de temperaturas entre el suelo y la niebla son muy pequeñas. Por eso son casi invisibles durante la noche. Las imágenes de satélite del Meteosat (Europa) son actualizados en tiempo real cada 5 minutos. Las imágenes del GOES-16/GOES-17 (América del Norte y América del Sur) y Himawari (Asia) son actualizados cada 10 minutos.

Copyright 2021 EUMETSAT / meteoblue. / Copyright 2021 meteoblue

Radar y precipitación nowcast para 51.15°N 51.54°E

llovizna
Leve
Moderado
Fuerte
Muy fuerte
Granizo

El marcador de lugar se coloca en 51.15°N 51.54°E. Esta animación muestra lo radar de precipitaciones hasta la última hora, así como la 1h previsión. Las lloviznas o las nevadas ligeras pueden ser invisibles para el radar. La intensidad de la precipitación está codificada por colores, que van del azul claro al naranja.